Time;durP1;ratioP1;P1;durP2;ratioP2;P2;SDS_P1;SDS_P2;PMS_P1;PMS_P2;Temp;Humidity;BMP_temperature;BMP_pressure;BME280_temperature;BME280_humidity;BME280_pressure;Samples;Min_cycle;Max_cycle;Signal;HPM_P1;HPM_P2
2021/03/17 00:00:10;;;;;;;12.30;8.77;;;;;;;;;;5052215;28;20286;-68
2021/03/17 00:02:35;;;;;;;11.93;9.57;;;;;;;;;;5053663;28;20185;-67
2021/03/17 00:05:00;;;;;;;10.30;8.13;;;;;;;;;;5051710;28;20221;-67
2021/03/17 00:07:25;;;;;;;11.87;9.00;;;;;;;;;;5050084;28;20173;-65
2021/03/17 00:09:50;;;;;;;9.87;7.20;;;;;;;;;;5052927;28;20285;-66
2021/03/17 00:12:15;;;;;;;10.17;6.97;;;;;;;;;;5059029;28;20170;-66
2021/03/17 00:14:41;;;;;;;10.70;7.27;;;;;;;;;;5050924;28;20269;-68
2021/03/17 00:17:06;;;;;;;9.37;7.37;;;;;;;;;;5055787;28;20182;-68
2021/03/17 00:19:31;;;;;;;8.10;6.20;;;;;;;;;;5051814;28;20271;-66
2021/03/17 00:21:56;;;;;;;9.43;6.20;;;;;;;;;;5044782;28;20646;-68
2021/03/17 00:24:21;;;;;;;7.50;5.70;;;;;;;;;;5053952;28;20701;-68
2021/03/17 00:26:47;;;;;;;9.30;5.13;;;;;;;;;;5055197;28;20182;-68
2021/03/17 00:29:12;;;;;;;6.50;5.43;;;;;;;;;;5047195;28;20736;-68
2021/03/17 00:31:37;;;;;;;5.70;4.70;;;;;;;;;;5046059;28;20193;-66
2021/03/17 00:34:02;;;;;;;9.10;5.10;;;;;;;;;;5048925;28;20599;-67
2021/03/17 00:36:27;;;;;;;5.90;4.57;;;;;;;;;;5053654;28;20558;-67
2021/03/17 00:38:52;;;;;;;8.23;3.97;;;;;;;;;;5054660;28;20186;-67
2021/03/17 00:41:18;;;;;;;5.17;3.90;;;;;;;;;;5057268;28;20185;-67
2021/03/17 00:43:43;;;;;;;4.63;4.00;;;;;;;;;;5051553;28;20206;-67
2021/03/17 00:46:08;;;;;;;5.70;3.97;;;;;;;;;;5053461;28;20246;-67
2021/03/17 00:48:33;;;;;;;5.03;3.50;;;;;;;;;;5048106;28;20170;-67
2021/03/17 00:50:58;;;;;;;2.90;2.53;;;;;;;;;;5053109;28;20204;-67
2021/03/17 00:53:23;;;;;;;4.53;2.83;;;;;;;;;;5056791;28;20211;-67
2021/03/17 00:55:49;;;;;;;3.37;2.90;;;;;;;;;;5045642;28;20257;-67
2021/03/17 00:58:14;;;;;;;6.00;3.30;;;;;;;;;;5049933;28;20182;-68
2021/03/17 01:00:39;;;;;;;4.17;2.97;;;;;;;;;;5046080;28;20582;-67
2021/03/17 01:03:04;;;;;;;3.20;2.77;;;;;;;;;;5050307;28;20651;-67
2021/03/17 01:05:29;;;;;;;3.47;2.87;;;;;;;;;;5047776;28;20653;-67
2021/03/17 01:07:55;;;;;;;3.77;3.00;;;;;;;;;;5052089;28;20635;-68
2021/03/17 01:10:37;;;;;;;4.00;3.07;;;;;;;;;;5048600;28;20284;-67
2021/03/17 01:13:02;;;;;;;4.30;3.90;;;;;;;;;;5045990;28;20173;-67
2021/03/17 01:15:28;;;;;;;4.57;3.40;;;;;;;;;;5042230;28;20188;-65
2021/03/17 01:17:53;;;;;;;4.57;3.43;;;;;;;;;;5047873;28;20418;-67
2021/03/17 01:20:21;;;;;;;4.87;3.80;;;;;;;;;;5046960;28;20198;-67
2021/03/17 01:22:46;;;;;;;5.00;4.43;;;;;;;;;;5050555;28;20192;-67
2021/03/17 01:25:13;;;;;;;5.50;4.17;;;;;;;;;;5056059;28;20197;-67
2021/03/17 01:27:38;;;;;;;5.03;4.53;;;;;;;;;;5052334;28;20184;-68
2021/03/17 01:30:04;;;;;;;7.60;4.77;;;;;;;;;;5046632;28;20581;-68
2021/03/17 01:32:29;;;;;;;5.83;5.23;;;;;;;;;;5052340;28;20267;-67
2021/03/17 01:34:55;;;;;;;6.40;5.43;;;;;;;;;;5046612;28;20585;-67
2021/03/17 01:37:20;;;;;;;7.03;5.40;;;;;;;;;;5052605;28;20188;-66
2021/03/17 01:39:45;;;;;;;8.63;6.33;;;;;;;;;;5053429;28;20739;-68
2021/03/17 01:42:10;;;;;;;7.20;5.93;;;;;;;;;;5053351;28;20189;-67
2021/03/17 01:44:35;;;;;;;6.93;5.90;;;;;;;;;;5048211;28;20220;-67
2021/03/17 01:47:01;;;;;;;7.30;6.50;;;;;;;;;;5053106;28;20174;-67
2021/03/17 01:49:26;;;;;;;7.40;6.37;;;;;;;;;;5045431;28;20223;-67
2021/03/17 01:51:51;;;;;;;8.13;7.03;;;;;;;;;;5051807;28;20562;-67
2021/03/17 01:54:16;;;;;;;7.60;6.47;;;;;;;;;;5049333;28;20186;-68
2021/03/17 01:56:41;;;;;;;8.57;7.67;;;;;;;;;;5051273;28;20189;-67
2021/03/17 01:59:07;;;;;;;8.80;7.10;;;;;;;;;;5050150;28;20661;-68
2021/03/17 02:01:32;;;;;;;8.80;6.97;;;;;;;;;;5051086;28;20546;-67
2021/03/17 02:03:57;;;;;;;10.17;8.10;;;;;;;;;;5050597;28;20570;-66
2021/03/17 02:06:22;;;;;;;9.23;8.07;;;;;;;;;;5050838;28;20196;-67
2021/03/17 02:08:47;;;;;;;10.03;8.63;;;;;;;;;;5050191;28;20182;-66
2021/03/17 02:11:13;;;;;;;11.97;9.20;;;;;;;;;;5049685;28;20202;-66
2021/03/17 02:13:57;;;;;;;11.07;9.60;;;;;;;;;;5049566;28;20284;-67
2021/03/17 02:16:26;;;;;;;12.53;10.80;;;;;;;;;;5050868;28;20209;-67
2021/03/17 02:18:55;;;;;;;11.97;10.03;;;;;;;;;;5047191;28;20225;-67
2021/03/17 02:21:38;;;;;;;13.13;10.37;;;;;;;;;;5049023;28;20273;-68
2021/03/17 02:24:03;;;;;;;14.13;11.80;;;;;;;;;;5043080;28;20228;-67
2021/03/17 02:26:29;;;;;;;13.02;10.48;;;;;;;;;;5044649;28;20650;-66
2021/03/17 02:28:54;;;;;;;14.10;10.85;;;;;;;;;;5047479;28;20185;-67
2021/03/17 02:31:19;;;;;;;14.10;11.13;;;;;;;;;;5050090;28;20175;-67
2021/03/17 02:33:48;;;;;;;14.30;11.13;;;;;;;;;;5050417;28;20185;-67
2021/03/17 02:36:26;;;;;;;12.77;11.03;;;;;;;;;;5046121;28;20231;-67
2021/03/17 02:38:57;;;;;;;13.77;11.00;;;;;;;;;;5051036;28;20180;-67
2021/03/17 02:41:25;;;;;;;13.33;11.03;;;;;;;;;;5050906;28;20272;-67
2021/03/17 02:43:53;;;;;;;13.90;10.60;;;;;;;;;;5048248;28;20188;-67
2021/03/17 02:46:19;;;;;;;14.37;9.77;;;;;;;;;;5047657;28;20272;-67
2021/03/17 02:48:44;;;;;;;12.50;10.30;;;;;;;;;;5048710;28;20245;-67
2021/03/17 02:51:14;;;;;;;11.88;9.57;;;;;;;;;;5047904;28;20730;-67
2021/03/17 02:53:40;;;;;;;11.83;9.67;;;;;;;;;;5046647;28;20178;-67
2021/03/17 02:56:10;;;;;;;12.03;8.50;;;;;;;;;;5045040;28;20276;-67
2021/03/17 02:58:37;;;;;;;12.20;9.53;;;;;;;;;;5054530;28;20546;-67
2021/03/17 03:01:03;;;;;;;8.77;7.47;;;;;;;;;;5050727;28;20204;-67
2021/03/17 03:03:29;;;;;;;7.90;6.70;;;;;;;;;;5040552;28;20900;-66
2021/03/17 03:05:55;;;;;;;7.30;6.13;;;;;;;;;;5049565;28;20547;-67
2021/03/17 03:08:22;;;;;;;8.10;6.50;;;;;;;;;;5046814;28;20170;-67
2021/03/17 03:10:47;;;;;;;7.77;6.87;;;;;;;;;;5051064;28;20210;-67
2021/03/17 03:13:12;;;;;;;8.27;6.50;;;;;;;;;;5049349;28;20560;-68
2021/03/17 03:15:37;;;;;;;8.17;6.70;;;;;;;;;;5044067;28;20188;-68
2021/03/17 03:18:04;;;;;;;9.60;8.20;;;;;;;;;;5047800;28;20185;-68
2021/03/17 03:20:30;;;;;;;9.87;7.43;;;;;;;;;;5051250;28;20588;-68
2021/03/17 03:22:55;;;;;;;8.10;7.13;;;;;;;;;;5043785;28;20708;-67
2021/03/17 03:25:21;;;;;;;7.63;6.90;;;;;;;;;;5045916;28;20295;-68
2021/03/17 03:27:46;;;;;;;7.97;6.70;;;;;;;;;;5045924;28;20168;-68
2021/03/17 03:30:16;;;;;;;11.43;6.67;;;;;;;;;;5049646;28;20217;-68
2021/03/17 03:32:42;;;;;;;7.30;6.30;;;;;;;;;;5047959;28;20182;-68
2021/03/17 03:35:09;;;;;;;7.93;6.80;;;;;;;;;;5049044;28;20240;-68
2021/03/17 03:37:34;;;;;;;8.50;6.80;;;;;;;;;;5047311;28;20189;-67
2021/03/17 03:40:00;;;;;;;8.17;7.07;;;;;;;;;;5049848;28;20211;-68
2021/03/17 03:42:25;;;;;;;9.60;8.17;;;;;;;;;;5044161;28;20833;-68
2021/03/17 03:44:50;;;;;;;9.63;8.10;;;;;;;;;;5048305;28;20237;-68
2021/03/17 03:47:15;;;;;;;12.27;8.10;;;;;;;;;;5053232;28;20180;-68
2021/03/17 03:49:41;;;;;;;9.63;7.87;;;;;;;;;;5043743;28;20202;-68
2021/03/17 03:52:10;;;;;;;13.87;7.83;;;;;;;;;;5050697;28;20170;-67
2021/03/17 03:54:42;;;;;;;8.40;7.47;;;;;;;;;;5046168;28;20217;-68
2021/03/17 03:57:07;;;;;;;9.23;7.37;;;;;;;;;;5045947;28;20674;-68
2021/03/17 03:59:35;;;;;;;19.93;7.70;;;;;;;;;;5050576;28;20206;-67
2021/03/17 04:02:01;;;;;;;8.80;6.87;;;;;;;;;;5048803;28;20181;-68
2021/03/17 04:04:28;;;;;;;10.53;6.50;;;;;;;;;;5048549;28;20209;-67
2021/03/17 04:06:55;;;;;;;9.43;6.93;;;;;;;;;;5047416;28;20261;-67
2021/03/17 04:09:24;;;;;;;8.33;6.70;;;;;;;;;;5050014;28;20325;-67
2021/03/17 04:11:50;;;;;;;7.93;6.20;;;;;;;;;;5049009;28;20181;-68
2021/03/17 04:14:16;;;;;;;9.77;6.83;;;;;;;;;;5049594;28;20721;-67
2021/03/17 04:16:41;;;;;;;8.40;6.83;;;;;;;;;;5046341;28;20674;-66
2021/03/17 04:19:07;;;;;;;9.00;6.37;;;;;;;;;;5050825;28;20182;-68
2021/03/17 04:21:35;;;;;;;7.70;6.00;;;;;;;;;;5046261;28;20170;-68
2021/03/17 04:24:02;;;;;;;6.47;5.83;;;;;;;;;;5052388;28;20194;-66
2021/03/17 04:26:28;;;;;;;6.67;5.97;;;;;;;;;;5048127;28;20705;-68
2021/03/17 04:28:54;;;;;;;8.43;5.77;;;;;;;;;;5046608;28;20173;-66
2021/03/17 04:31:20;;;;;;;8.50;6.67;;;;;;;;;;5049608;28;20274;-68
2021/03/17 04:33:46;;;;;;;8.17;6.37;;;;;;;;;;5050510;28;20737;-68
2021/03/17 04:36:12;;;;;;;9.60;6.77;;;;;;;;;;5051565;28;20244;-68
2021/03/17 04:38:37;;;;;;;6.57;5.57;;;;;;;;;;5052974;28;20212;-68
2021/03/17 04:41:03;;;;;;;6.93;5.70;;;;;;;;;;5052234;28;20229;-67
2021/03/17 04:43:28;;;;;;;9.07;6.47;;;;;;;;;;5051502;28;20199;-68
2021/03/17 04:45:53;;;;;;;6.63;5.63;;;;;;;;;;5049732;28;20177;-67
2021/03/17 04:48:19;;;;;;;9.60;6.37;;;;;;;;;;5052367;28;20173;-67
2021/03/17 04:50:45;;;;;;;8.97;6.33;;;;;;;;;;5050603;28;20276;-68
2021/03/17 04:53:10;;;;;;;7.20;6.30;;;;;;;;;;5053532;28;20545;-68
2021/03/17 04:55:36;;;;;;;7.47;6.10;;;;;;;;;;5046569;28;20261;-67
2021/03/17 04:58:02;;;;;;;8.07;6.23;;;;;;;;;;5053634;28;20182;-68
2021/03/17 05:00:28;;;;;;;10.60;7.90;;;;;;;;;;5052675;28;20205;-68
2021/03/17 05:03:02;;;;;;;10.57;8.60;;;;;;;;;;5049895;28;20174;-67
2021/03/17 05:05:29;;;;;;;12.47;8.60;;;;;;;;;;5049731;28;20204;-68
2021/03/17 05:07:54;;;;;;;12.70;9.83;;;;;;;;;;5053488;28;20203;-68
2021/03/17 05:10:20;;;;;;;13.73;11.47;;;;;;;;;;5043433;28;20280;-68
2021/03/17 05:12:45;;;;;;;11.97;10.07;;;;;;;;;;5047842;28;20188;-67
2021/03/17 05:15:11;;;;;;;12.60;10.63;;;;;;;;;;5045815;28;20190;-67
2021/03/17 05:17:37;;;;;;;12.27;9.87;;;;;;;;;;5050392;28;20494;-67
2021/03/17 05:20:03;;;;;;;13.60;10.87;;;;;;;;;;5051750;28;20202;-67
2021/03/17 05:22:30;;;;;;;12.90;9.97;;;;;;;;;;5051417;28;20251;-67
2021/03/17 05:24:55;;;;;;;12.03;9.87;;;;;;;;;;5051125;28;20232;-68
2021/03/17 05:27:21;;;;;;;11.27;8.97;;;;;;;;;;5051489;28;20574;-67
2021/03/17 05:29:48;;;;;;;12.40;8.73;;;;;;;;;;5050459;28;20259;-68
2021/03/17 05:32:13;;;;;;;11.30;9.47;;;;;;;;;;5051482;28;20670;-68
2021/03/17 05:34:48;;;;;;;10.77;7.77;;;;;;;;;;5051994;28;20560;-68
2021/03/17 05:37:13;;;;;;;10.30;8.13;;;;;;;;;;5044746;28;20189;-68
2021/03/17 05:39:38;;;;;;;11.97;7.90;;;;;;;;;;5049964;28;20270;-67
2021/03/17 05:42:04;;;;;;;9.33;6.60;;;;;;;;;;5049710;28;20779;-68
2021/03/17 05:44:29;;;;;;;9.20;6.60;;;;;;;;;;5039596;28;20206;-67
2021/03/17 05:46:54;;;;;;;6.87;5.90;;;;;;;;;;5048426;28;20670;-67
2021/03/17 05:49:20;;;;;;;5.67;4.67;;;;;;;;;;5048218;28;20209;-66
2021/03/17 05:51:45;;;;;;;4.70;4.10;;;;;;;;;;5052536;28;20182;-66
2021/03/17 05:54:11;;;;;;;6.07;4.20;;;;;;;;;;5049596;28;20251;-66
2021/03/17 05:56:36;;;;;;;4.73;3.90;;;;;;;;;;5052585;28;20185;-66
2021/03/17 05:59:01;;;;;;;5.27;3.60;;;;;;;;;;5052973;28;20190;-66
2021/03/17 06:01:27;;;;;;;5.80;3.57;;;;;;;;;;5048577;28;20182;-66
2021/03/17 06:03:53;;;;;;;3.67;3.10;;;;;;;;;;5045397;28;20288;-66
2021/03/17 06:06:19;;;;;;;5.03;2.63;;;;;;;;;;5050839;28;20280;-65
2021/03/17 06:08:45;;;;;;;3.30;2.60;;;;;;;;;;5051568;28;20186;-66
2021/03/17 06:11:12;;;;;;;3.03;2.20;;;;;;;;;;5043581;28;20202;-66
2021/03/17 06:13:46;;;;;;;2.33;2.10;;;;;;;;;;5044252;28;20236;-66
2021/03/17 06:16:12;;;;;;;4.03;2.50;;;;;;;;;;5042275;28;20188;-66
2021/03/17 06:18:42;;;;;;;2.07;1.90;;;;;;;;;;5047663;28;20178;-66
2021/03/17 06:21:07;;;;;;;2.20;1.80;;;;;;;;;;5046529;28;20204;-66
2021/03/17 06:23:33;;;;;;;2.40;2.00;;;;;;;;;;5045814;28;20182;-66
2021/03/17 06:25:58;;;;;;;6.00;2.37;;;;;;;;;;5046212;28;20556;-67
2021/03/17 06:28:24;;;;;;;2.17;1.60;;;;;;;;;;5046306;28;20204;-66
2021/03/17 06:30:52;;;;;;;2.40;2.20;;;;;;;;;;5040107;28;20281;-66
2021/03/17 06:33:17;;;;;;;2.70;2.00;;;;;;;;;;5041131;28;20255;-66
2021/03/17 06:35:42;;;;;;;2.37;2.03;;;;;;;;;;5037024;28;20181;-67
2021/03/17 06:38:18;;;;;;;2.30;1.70;;;;;;;;;;5046067;28;20273;-66
2021/03/17 06:40:54;;;;;;;2.77;1.83;;;;;;;;;;5044290;28;20204;-66
2021/03/17 06:43:20;;;;;;;1.80;1.60;;;;;;;;;;5039862;28;20185;-65
2021/03/17 06:45:49;;;;;;;2.10;1.87;;;;;;;;;;5047589;28;20197;-65
2021/03/17 06:48:24;;;;;;;2.30;2.00;;;;;;;;;;5043414;28;20261;-65
2021/03/17 06:51:08;;;;;;;2.67;2.30;;;;;;;;;;5047203;28;20308;-66
2021/03/17 06:53:52;;;;;;;2.30;1.90;;;;;;;;;;5047543;28;20178;-66
2021/03/17 06:56:17;;;;;;;4.97;2.13;;;;;;;;;;5046182;28;20595;-66
2021/03/17 06:58:52;;;;;;;2.63;1.83;;;;;;;;;;5051454;28;20169;-66
2021/03/17 07:01:23;;;;;;;2.60;1.70;;;;;;;;;;5048484;28;20172;-66
2021/03/17 07:04:11;;;;;;;2.20;1.90;;;;;;;;;;5049221;28;20703;-65
2021/03/17 07:06:37;;;;;;;2.97;2.00;;;;;;;;;;5052595;28;20182;-64
2021/03/17 07:09:13;;;;;;;2.33;2.13;;;;;;;;;;5051371;28;20223;-65
2021/03/17 07:11:38;;;;;;;2.97;1.63;;;;;;;;;;5046097;28;20177;-66
2021/03/17 07:14:04;;;;;;;2.27;2.07;;;;;;;;;;5044765;28;20177;-66
2021/03/17 07:16:30;;;;;;;3.70;2.07;;;;;;;;;;5046099;28;20169;-65
2021/03/17 07:18:55;;;;;;;1.93;1.73;;;;;;;;;;5051591;28;20201;-65
2021/03/17 07:21:28;;;;;;;2.00;1.80;;;;;;;;;;5039981;28;20205;-68
2021/03/17 07:23:53;;;;;;;1.90;1.70;;;;;;;;;;5037082;28;20218;-64
2021/03/17 07:26:19;;;;;;;2.27;1.90;;;;;;;;;;5037250;28;20177;-64
2021/03/17 07:28:47;;;;;;;2.07;1.87;;;;;;;;;;5037467;28;20217;-65
2021/03/17 07:31:22;;;;;;;2.97;1.90;;;;;;;;;;5037025;28;20932;-65
2021/03/17 07:33:48;;;;;;;2.43;1.50;;;;;;;;;;5042638;28;20185;-66
2021/03/17 07:36:29;;;;;;;7.77;1.90;;;;;;;;;;5038066;28;20182;-67
2021/03/17 07:38:58;;;;;;;2.70;2.23;;;;;;;;;;5036501;28;20185;-67
2021/03/17 07:41:23;;;;;;;4.17;2.40;;;;;;;;;;5041539;28;20185;-67
2021/03/17 07:43:49;;;;;;;2.63;2.03;;;;;;;;;;5036190;28;20678;-67
2021/03/17 07:46:14;;;;;;;4.70;2.17;;;;;;;;;;5044858;28;20196;-66
2021/03/17 07:48:39;;;;;;;3.13;2.00;;;;;;;;;;5047342;28;20181;-67
2021/03/17 07:51:05;;;;;;;3.53;1.90;;;;;;;;;;5049902;28;20197;-67
2021/03/17 07:53:32;;;;;;;1.90;1.67;;;;;;;;;;5045475;28;20178;-67
2021/03/17 07:55:57;;;;;;;2.07;1.53;;;;;;;;;;5018914;28;20178;-67
2021/03/17 07:58:23;;;;;;;2.00;1.70;;;;;;;;;;5022111;28;20631;-67
2021/03/17 08:00:49;;;;;;;3.53;1.50;;;;;;;;;;5024234;28;20209;-65
2021/03/17 08:03:15;;;;;;;1.53;1.13;;;;;;;;;;5024962;28;20186;-66
2021/03/17 08:05:41;;;;;;;3.67;2.27;;;;;;;;;;5023327;28;20240;-66
2021/03/17 08:08:07;;;;;;;2.13;0.97;;;;;;;;;;5029665;28;20304;-66
2021/03/17 08:10:36;;;;;;;3.40;1.20;;;;;;;;;;5030986;28;20201;-66
2021/03/17 08:13:01;;;;;;;1.73;1.40;;;;;;;;;;5029289;28;20181;-66
2021/03/17 08:15:26;;;;;;;5.20;1.77;;;;;;;;;;5028775;28;20206;-67
2021/03/17 08:17:51;;;;;;;4.00;1.40;;;;;;;;;;5028100;28;20190;-66
2021/03/17 08:20:23;;;;;;;3.00;1.47;;;;;;;;;;5027441;28;20205;-66
2021/03/17 08:22:49;;;;;;;3.23;1.17;;;;;;;;;;5027256;28;20277;-66
2021/03/17 08:25:33;;;;;;;3.40;1.93;;;;;;;;;;5028699;28;20232;-65
2021/03/17 08:28:21;;;;;;;5.00;1.20;;;;;;;;;;5032587;28;20189;-66
2021/03/17 08:30:47;;;;;;;1.30;1.07;;;;;;;;;;5028032;28;20371;-64
2021/03/17 08:33:31;;;;;;;2.03;1.40;;;;;;;;;;5026755;28;20571;-66
2021/03/17 08:36:22;;;;;;;6.00;1.60;;;;;;;;;;5029628;28;20181;-65
2021/03/17 08:38:55;;;;;;;3.17;1.47;;;;;;;;;;5026199;28;20250;-67
2021/03/17 08:41:38;;;;;;;4.10;1.77;;;;;;;;;;5025102;28;20182;-67
2021/03/17 08:44:11;;;;;;;4.73;1.40;;;;;;;;;;5024127;28;20236;-66
2021/03/17 08:46:37;;;;;;;3.03;1.17;;;;;;;;;;5036675;28;20229;-66
2021/03/17 08:49:06;;;;;;;1.27;0.50;;;;;;;;;;5043877;28;20663;-67
2021/03/17 08:51:47;;;;;;;1.20;0.80;;;;;;;;;;5033714;28;20309;-66
2021/03/17 08:57:01;;;;;;;5.60;0.80;;;;;;;;;;5030429;28;20201;-66
2021/03/17 08:59:44;;;;;;;2.43;0.93;;;;;;;;;;5046050;28;20679;-67
2021/03/17 09:02:20;;;;;;;2.00;0.80;;;;;;;;;;5025666;28;20248;-67
2021/03/17 09:04:46;;;;;;;1.57;0.80;;;;;;;;;;5028459;28;20276;-67
2021/03/17 09:07:11;;;;;;;2.10;0.90;;;;;;;;;;5036394;28;20230;-68
2021/03/17 09:09:50;;;;;;;1.83;0.90;;;;;;;;;;5030511;28;20198;-65
2021/03/17 09:12:17;;;;;;;8.60;1.23;;;;;;;;;;5028408;28;20852;-68
2021/03/17 09:14:43;;;;;;;1.93;1.00;;;;;;;;;;5038217;28;20728;-67
2021/03/17 09:17:11;;;;;;;2.20;0.93;;;;;;;;;;5027637;28;20186;-67
2021/03/17 09:19:55;;;;;;;2.83;1.17;;;;;;;;;;5023285;28;20270;-67
2021/03/17 09:22:40;;;;;;;2.77;1.30;;;;;;;;;;5028665;28;20240;-66
2021/03/17 09:25:25;;;;;;;7.00;1.40;;;;;;;;;;5026474;28;20671;-67
2021/03/17 09:28:01;;;;;;;1.50;1.07;;;;;;;;;;5029216;28;20205;-67
2021/03/17 09:30:27;;;;;;;3.50;0.90;;;;;;;;;;5025176;28;20220;-66
2021/03/17 09:33:09;;;;;;;2.73;0.90;;;;;;;;;;5041552;28;20655;-67
2021/03/17 09:35:35;;;;;;;3.60;1.00;;;;;;;;;;5048795;28;20182;-67
2021/03/17 09:38:11;;;;;;;6.30;1.30;;;;;;;;;;5028134;28;20186;-67
2021/03/17 09:40:41;;;;;;;1.90;0.90;;;;;;;;;;5046282;28;20290;-66
2021/03/17 09:43:25;;;;;;;6.57;1.77;;;;;;;;;;5026333;28;20694;-67
2021/03/17 09:45:51;;;;;;;5.80;1.40;;;;;;;;;;5027169;28;20211;-67
2021/03/17 09:48:16;;;;;;;4.00;1.17;;;;;;;;;;5044296;28;20725;-66
2021/03/17 09:50:41;;;;;;;4.17;1.40;;;;;;;;;;5046952;28;20317;-67
2021/03/17 09:53:11;;;;;;;4.13;1.60;;;;;;;;;;5024006;28;20216;-66
2021/03/17 09:55:37;;;;;;;2.03;1.13;;;;;;;;;;5027774;28;20217;-66
2021/03/17 09:58:03;;;;;;;3.47;1.10;;;;;;;;;;5024071;28;20671;-66
2021/03/17 10:00:29;;;;;;;1.80;0.90;;;;;;;;;;5023981;28;20209;-67
2021/03/17 10:02:56;;;;;;;8.13;1.50;;;;;;;;;;5038497;28;20181;-67
2021/03/17 10:05:21;;;;;;;1.67;0.90;;;;;;;;;;5036883;28;20278;-67
2021/03/17 10:07:46;;;;;;;4.77;1.30;;;;;;;;;;5024940;28;20182;-67
2021/03/17 10:10:12;;;;;;;2.13;1.10;;;;;;;;;;5024346;28;20198;-67
2021/03/17 10:12:37;;;;;;;4.87;1.13;;;;;;;;;;5037653;28;20178;-67
2021/03/17 10:15:05;;;;;;;2.43;1.10;;;;;;;;;;5041294;28;20173;-67
2021/03/17 10:17:30;;;;;;;2.77;1.00;;;;;;;;;;5025760;28;20657;-67
2021/03/17 10:19:56;;;;;;;5.20;0.80;;;;;;;;;;5028151;28;20233;-67
2021/03/17 10:22:23;;;;;;;1.70;0.83;;;;;;;;;;5022883;28;20201;-66
2021/03/17 10:24:49;;;;;;;5.37;0.80;;;;;;;;;;5024200;28;20695;-67
2021/03/17 10:27:16;;;;;;;2.47;0.90;;;;;;;;;;5027601;28;20886;-67
2021/03/17 10:29:42;;;;;;;3.97;1.20;;;;;;;;;;5023827;28;20226;-66
2021/03/17 10:32:08;;;;;;;2.70;0.73;;;;;;;;;;5033748;28;20675;-66
2021/03/17 10:34:34;;;;;;;3.17;0.63;;;;;;;;;;5022261;28;20188;-66
2021/03/17 10:36:59;;;;;;;5.00;1.07;;;;;;;;;;5028306;28;20174;-67
2021/03/17 10:39:29;;;;;;;4.30;0.80;;;;;;;;;;5039745;28;20204;-66
2021/03/17 10:41:54;;;;;;;4.27;1.33;;;;;;;;;;5023536;28;20182;-67
2021/03/17 10:44:21;;;;;;;6.17;0.97;;;;;;;;;;5041916;28;20201;-67
2021/03/17 10:46:58;;;;;;;3.23;1.03;;;;;;;;;;5033540;28;20182;-66
2021/03/17 10:49:24;;;;;;;4.03;0.77;;;;;;;;;;5028941;28;20594;-67
2021/03/17 10:51:56;;;;;;;1.77;0.90;;;;;;;;;;5023846;28;20181;-70
2021/03/17 10:54:32;;;;;;;8.77;1.23;;;;;;;;;;5023603;28;20186;-67
2021/03/17 10:56:57;;;;;;;3.93;1.10;;;;;;;;;;5023957;28;21851;-65
2021/03/17 10:59:26;;;;;;;4.67;0.93;;;;;;;;;;5024693;28;20203;-66
2021/03/17 11:02:10;;;;;;;7.83;1.33;;;;;;;;;;5022602;28;20193;-67
2021/03/17 11:04:35;;;;;;;3.33;0.70;;;;;;;;;;5024302;28;20201;-67
2021/03/17 11:07:00;;;;;;;2.97;0.87;;;;;;;;;;5026590;28;20178;-65
2021/03/17 11:09:26;;;;;;;3.27;0.90;;;;;;;;;;5023853;28;20206;-67
2021/03/17 11:11:51;;;;;;;5.57;1.10;;;;;;;;;;5022040;28;20181;-67
2021/03/17 11:14:32;;;;;;;2.47;0.80;;;;;;;;;;5026795;28;20188;-67
2021/03/17 11:17:02;;;;;;;6.37;1.60;;;;;;;;;;5026129;28;20196;-67
2021/03/17 11:19:27;;;;;;;1.23;0.70;;;;;;;;;;5024831;28;20206;-67
2021/03/17 11:21:52;;;;;;;3.53;1.07;;;;;;;;;;5022521;28;20204;-67
2021/03/17 11:24:19;;;;;;;3.03;1.00;;;;;;;;;;5022188;28;20702;-67
2021/03/17 11:26:45;;;;;;;2.37;0.80;;;;;;;;;;5028516;28;20230;-67
2021/03/17 11:29:15;;;;;;;5.27;1.07;;;;;;;;;;5023752;28;20288;-67
2021/03/17 11:31:41;;;;;;;2.17;1.10;;;;;;;;;;5028788;28;20185;-66
2021/03/17 11:34:07;;;;;;;3.37;1.07;;;;;;;;;;5021063;28;20196;-67
2021/03/17 11:36:32;;;;;;;2.37;1.10;;;;;;;;;;5022375;28;20193;-66
2021/03/17 11:38:58;;;;;;;3.33;0.97;;;;;;;;;;5040048;28;20177;-67
2021/03/17 11:41:24;;;;;;;4.67;0.90;;;;;;;;;;5037767;28;20190;-67
2021/03/17 11:43:50;;;;;;;4.23;0.90;;;;;;;;;;5023595;28;20194;-67
2021/03/17 11:46:16;;;;;;;4.90;0.87;;;;;;;;;;5024555;28;21926;-67
2021/03/17 11:48:41;;;;;;;1.83;0.80;;;;;;;;;;5024140;28;20189;-66
2021/03/17 11:51:07;;;;;;;4.40;0.83;;;;;;;;;;5028362;28;20202;-66
2021/03/17 11:53:34;;;;;;;5.07;1.37;;;;;;;;;;5023258;28;20194;-66
2021/03/17 11:55:59;;;;;;;2.53;1.00;;;;;;;;;;5029766;28;20585;-66
2021/03/17 11:58:24;;;;;;;2.47;0.57;;;;;;;;;;5023174;28;20193;-66
2021/03/17 12:00:50;;;;;;;2.57;0.63;;;;;;;;;;5030641;28;20220;-66
2021/03/17 12:03:15;;;;;;;3.40;1.10;;;;;;;;;;5025971;28;20182;-67
2021/03/17 12:05:41;;;;;;;3.07;0.90;;;;;;;;;;5025293;28;20214;-67
2021/03/17 12:08:06;;;;;;;3.23;0.90;;;;;;;;;;5023404;28;20190;-66
2021/03/17 12:10:31;;;;;;;2.37;0.60;;;;;;;;;;5028237;28;20232;-67
2021/03/17 12:12:57;;;;;;;1.00;0.50;;;;;;;;;;5023506;28;20656;-67
2021/03/17 12:15:23;;;;;;;4.07;0.60;;;;;;;;;;5029611;28;20647;-67
2021/03/17 12:17:48;;;;;;;4.17;0.80;;;;;;;;;;5021953;28;20279;-67
2021/03/17 12:20:14;;;;;;;2.27;0.60;;;;;;;;;;5023874;28;20644;-67
2021/03/17 12:22:40;;;;;;;3.13;0.93;;;;;;;;;;5023200;28;20601;-67
2021/03/17 12:25:06;;;;;;;2.47;0.70;;;;;;;;;;5020785;28;20221;-67
2021/03/17 12:27:32;;;;;;;1.97;0.77;;;;;;;;;;5027328;28;20186;-67
2021/03/17 12:29:58;;;;;;;4.50;1.00;;;;;;;;;;5027428;28;20206;-67
2021/03/17 12:32:23;;;;;;;4.93;1.20;;;;;;;;;;5020997;28;20190;-66
2021/03/17 12:34:48;;;;;;;2.47;0.50;;;;;;;;;;5022616;28;20202;-65
2021/03/17 12:37:14;;;;;;;1.97;1.00;;;;;;;;;;5024281;28;20280;-66
2021/03/17 12:39:39;;;;;;;3.67;1.00;;;;;;;;;;5023214;28;22184;-67
2021/03/17 12:42:05;;;;;;;2.50;1.43;;;;;;;;;;5031249;28;20668;-66
2021/03/17 12:44:30;;;;;;;5.53;1.17;;;;;;;;;;5023650;28;20203;-67
2021/03/17 12:46:57;;;;;;;8.03;1.03;;;;;;;;;;5032009;28;20849;-67
2021/03/17 12:49:22;;;;;;;1.97;0.70;;;;;;;;;;5025811;28;20718;-67
2021/03/17 12:51:47;;;;;;;3.03;0.90;;;;;;;;;;5025571;28;20182;-66
2021/03/17 12:54:12;;;;;;;1.93;0.70;;;;;;;;;;5027294;28;20189;-67
2021/03/17 12:56:38;;;;;;;5.27;1.37;;;;;;;;;;5038941;28;20311;-67
2021/03/17 12:59:03;;;;;;;1.83;0.80;;;;;;;;;;5031482;28;20178;-67
2021/03/17 13:01:29;;;;;;;1.73;0.73;;;;;;;;;;5032247;28;20273;-66
2021/03/17 13:03:54;;;;;;;4.47;0.73;;;;;;;;;;5026134;28;20173;-67
2021/03/17 13:06:19;;;;;;;3.03;0.60;;;;;;;;;;5027989;28;20189;-67
2021/03/17 13:08:45;;;;;;;3.33;0.80;;;;;;;;;;5031115;28;20182;-68
2021/03/17 13:11:10;;;;;;;5.60;2.23;;;;;;;;;;5027552;28;20679;-67
2021/03/17 13:13:35;;;;;;;3.23;0.80;;;;;;;;;;5024177;28;20185;-67
2021/03/17 13:16:00;;;;;;;3.73;1.87;;;;;;;;;;5028361;28;20693;-67
2021/03/17 13:18:25;;;;;;;2.47;1.17;;;;;;;;;;5026393;28;20273;-67
2021/03/17 13:20:51;;;;;;;1.70;0.90;;;;;;;;;;5025903;28;20320;-65
2021/03/17 13:23:17;;;;;;;1.47;0.70;;;;;;;;;;5024305;28;20610;-66
2021/03/17 13:25:42;;;;;;;3.80;0.93;;;;;;;;;;5024719;28;20221;-66
2021/03/17 13:28:09;;;;;;;1.87;0.80;;;;;;;;;;5026591;28;20245;-66
2021/03/17 13:30:34;;;;;;;8.23;1.20;;;;;;;;;;5026401;28;20210;-66
2021/03/17 13:33:03;;;;;;;3.77;0.97;;;;;;;;;;5040018;28;20188;-67
2021/03/17 13:35:28;;;;;;;3.37;0.93;;;;;;;;;;5047680;28;20547;-66
2021/03/17 13:37:54;;;;;;;3.90;1.30;;;;;;;;;;5024799;28;20184;-66
2021/03/17 13:40:19;;;;;;;4.43;1.43;;;;;;;;;;5024475;28;20674;-67
2021/03/17 13:42:45;;;;;;;6.13;0.80;;;;;;;;;;5025988;28;20613;-67
2021/03/17 13:45:12;;;;;;;6.40;1.03;;;;;;;;;;5045010;28;20756;-66
2021/03/17 13:47:37;;;;;;;6.57;1.33;;;;;;;;;;5051646;28;20177;-67
2021/03/17 13:50:04;;;;;;;7.73;1.20;;;;;;;;;;5049250;28;20696;-66
2021/03/17 13:52:29;;;;;;;5.40;0.80;;;;;;;;;;5032833;28;20180;-66
2021/03/17 13:54:54;;;;;;;4.37;0.80;;;;;;;;;;5025660;28;20198;-66
2021/03/17 13:57:19;;;;;;;4.87;0.83;;;;;;;;;;5026606;28;20181;-67
2021/03/17 13:59:45;;;;;;;4.70;1.60;;;;;;;;;;5025512;28;20212;-67
2021/03/17 14:02:12;;;;;;;1.77;0.60;;;;;;;;;;5030583;28;20186;-66
2021/03/17 14:04:37;;;;;;;1.40;0.50;;;;;;;;;;5024633;28;20583;-67
2021/03/17 14:07:03;;;;;;;2.53;1.07;;;;;;;;;;5027793;28;20185;-67
2021/03/17 14:09:28;;;;;;;1.33;0.53;;;;;;;;;;5030130;28;20328;-66
2021/03/17 14:11:53;;;;;;;1.23;0.60;;;;;;;;;;5033910;28;20177;-65
2021/03/17 14:14:18;;;;;;;7.57;0.70;;;;;;;;;;5025287;28;20190;-67
2021/03/17 14:16:43;;;;;;;2.30;0.83;;;;;;;;;;5023288;28;20281;-67
2021/03/17 14:19:10;;;;;;;2.57;0.97;;;;;;;;;;5028307;28;20757;-67
2021/03/17 14:21:38;;;;;;;2.43;0.70;;;;;;;;;;5024102;28;20189;-66
2021/03/17 14:24:04;;;;;;;2.43;0.90;;;;;;;;;;5022520;28;20674;-67
2021/03/17 14:26:31;;;;;;;2.57;1.00;;;;;;;;;;5031679;28;20185;-66
2021/03/17 14:28:57;;;;;;;4.43;0.90;;;;;;;;;;5024628;28;20211;-66
2021/03/17 14:31:22;;;;;;;3.70;1.10;;;;;;;;;;5029904;28;20182;-67
2021/03/17 14:33:47;;;;;;;4.83;1.10;;;;;;;;;;5025109;28;20209;-66
2021/03/17 14:36:12;;;;;;;3.30;1.30;;;;;;;;;;5022792;28;21820;-67
2021/03/17 14:38:37;;;;;;;5.17;1.30;;;;;;;;;;5030112;28;20179;-66
2021/03/17 14:41:03;;;;;;;2.33;0.90;;;;;;;;;;5028388;28;20204;-66
2021/03/17 14:43:28;;;;;;;3.27;0.80;;;;;;;;;;5022820;28;20182;-66